Dixie Pine, Mississippi
Current Conditions -  °F | °C
As of 6:53 PM on Monday 24 Nov 2014 (Local Time) from KHBG Reporting Station
Clear Clear  
Wind Chill: 57°   Ceiling: Unl
Heat Index: 57°   Visibility: 10mi
Dew Point: 41°   Wind: 5mph
Humidity: 55%   Direction: 350°N
Pressure: 30.01"   Gusts: NA
Location:  31.1996°N, 89.2694°W
Report Text: KHBG 250053Z AUTO 35004KT 10SM CLR 14/05 A3001 RMK AO2 SLP160 T01390050
Loading
Personal Weather Stations






























Interactive Weather Map New forecast layout! Learn more

10-Day Weather Forecast

Advertisements
Track Severe Weather on mobile